createdAt,value
2023-02-22T00:02:11.176Z,82.78
2023-02-22T00:04:41.970Z,83.80
2023-02-22T00:07:09.137Z,83.65
2023-02-22T00:09:36.150Z,83.86
2023-02-22T00:12:03.323Z,83.49
2023-02-22T00:14:30.296Z,83.52
2023-02-22T00:16:59.918Z,83.64
2023-02-22T00:19:31.061Z,83.96
2023-02-22T00:21:58.487Z,84.36
2023-02-22T00:24:25.977Z,84.45
2023-02-22T00:26:55.718Z,83.75
2023-02-22T00:29:24.622Z,85.02
2023-02-22T00:31:51.801Z,84.12
2023-02-22T00:34:18.893Z,83.98
2023-02-22T00:36:49.651Z,83.82
2023-02-22T00:39:17.020Z,84.47
2023-02-22T00:41:44.400Z,84.43
2023-02-22T00:44:12.083Z,84.02
2023-02-22T00:46:40.378Z,84.81
2023-02-22T00:49:08.007Z,84.81
2023-02-22T00:51:36.050Z,84.71
2023-02-22T00:54:03.253Z,84.31
2023-02-22T00:56:30.347Z,83.86
2023-02-22T00:58:57.375Z,84.17
2023-02-22T01:01:24.551Z,84.93
2023-02-22T01:03:52.245Z,84.42
2023-02-22T01:06:20.119Z,85.12
2023-02-22T01:08:48.092Z,83.94
2023-02-22T01:11:17.533Z,85.05
2023-02-22T01:13:45.955Z,84.62
2023-02-22T01:16:13.265Z,84.18
2023-02-22T01:18:40.593Z,84.59
2023-02-22T01:21:09.159Z,84.09
2023-02-22T01:23:39.545Z,84.37
2023-02-22T01:26:07.055Z,84.66
2023-02-22T01:28:34.622Z,84.50
2023-02-22T01:31:03.202Z,84.58
2023-02-22T01:33:31.117Z,85.06
2023-02-22T01:36:00.216Z,85.51
2023-02-22T01:38:28.864Z,85.48
2023-02-22T01:40:56.510Z,85.29
2023-02-22T01:43:31.242Z,84.48
2023-02-22T01:46:06.516Z,85.11
2023-02-22T01:48:46.481Z,84.91
2023-02-22T01:51:19.743Z,84.54
2023-02-22T01:53:54.054Z,84.43
2023-02-22T01:56:22.583Z,85.96
2023-02-22T01:59:01.735Z,85.85
2023-02-22T02:01:30.434Z,85.92
2023-02-22T02:04:00.532Z,85.51
2023-02-22T02:06:32.454Z,85.84
2023-02-22T02:09:19.117Z,84.95
2023-02-22T02:11:47.018Z,85.06
2023-02-22T02:14:14.557Z,85.76
2023-02-22T02:16:50.936Z,85.46
2023-02-22T02:19:41.044Z,85.52
2023-02-22T02:22:17.255Z,85.29
2023-02-22T02:25:18.216Z,85.14
2023-02-22T02:28:10.301Z,84.72
2023-02-22T02:31:02.579Z,85.49
2023-02-22T02:33:59.824Z,85.25
2023-02-22T02:36:55.098Z,84.40
2023-02-22T02:39:36.101Z,85.08
2023-02-22T02:42:10.081Z,85.36
2023-02-22T02:44:52.474Z,84.74
2023-02-22T02:47:30.990Z,84.91
2023-02-22T02:50:10.956Z,85.03
2023-02-22T02:52:41.027Z,85.21
2023-02-22T02:55:11.403Z,84.58
2023-02-22T02:57:42.281Z,85.39
2023-02-22T03:00:22.635Z,85.47
2023-02-22T03:03:26.183Z,84.71
2023-02-22T03:06:27.238Z,84.64
2023-02-22T03:09:16.778Z,84.92
2023-02-22T03:12:30.277Z,84.71
2023-02-22T03:15:08.040Z,85.49
2023-02-22T03:18:04.505Z,85.63
2023-02-22T03:20:55.893Z,85.40
2023-02-22T03:24:02.436Z,84.74
2023-02-22T03:26:58.747Z,85.46
2023-02-22T03:29:28.901Z,86.09
2023-02-22T03:32:01.708Z,85.62
2023-02-22T03:34:48.042Z,85.39
2023-02-22T03:37:22.086Z,86.09
2023-02-22T03:39:54.730Z,85.79
2023-02-22T03:42:29.869Z,85.96
2023-02-22T03:45:00.705Z,85.76
2023-02-22T03:47:42.780Z,86.63
2023-02-22T03:50:25.394Z,86.18
2023-02-22T03:52:53.670Z,86.44
2023-02-22T03:55:29.448Z,86.63
2023-02-22T03:58:07.237Z,85.37
2023-02-22T04:00:35.867Z,86.24
2023-02-22T04:03:04.611Z,85.72
2023-02-22T04:05:32.459Z,86.56
2023-02-22T04:07:59.865Z,85.48
2023-02-22T04:10:28.055Z,85.44
2023-02-22T04:12:55.109Z,86.03
2023-02-22T04:15:24.827Z,86.30
2023-02-22T04:17:58.213Z,85.79
2023-02-22T04:20:25.713Z,85.74
2023-02-22T04:22:58.415Z,86.11
2023-02-22T04:25:25.445Z,85.51
2023-02-22T04:27:53.087Z,85.64
2023-02-22T04:30:30.268Z,85.91
2023-02-22T04:32:59.449Z,85.85
2023-02-22T04:35:26.573Z,85.95
2023-02-22T04:37:53.669Z,85.72
2023-02-22T04:40:20.947Z,86.35
2023-02-22T04:42:48.707Z,86.33
2023-02-22T04:45:16.225Z,86.23
2023-02-22T04:47:43.572Z,86.36
2023-02-22T04:50:12.895Z,86.26
2023-02-22T04:52:40.650Z,86.01
2023-02-22T04:55:08.492Z,86.39
2023-02-22T04:57:37.353Z,86.28
2023-02-22T05:00:06.915Z,86.80
2023-02-22T05:02:40.053Z,86.35
2023-02-22T05:05:07.976Z,87.11
2023-02-22T05:07:35.276Z,86.80
2023-02-22T05:10:03.026Z,86.88
2023-02-22T05:12:30.662Z,86.54
2023-02-22T05:14:57.698Z,86.71
2023-02-22T05:17:24.821Z,87.09
2023-02-22T05:19:51.924Z,86.78
2023-02-22T05:22:19.130Z,86.07
2023-02-22T05:24:46.224Z,86.16
2023-02-22T05:27:13.282Z,86.54
2023-02-22T05:29:40.728Z,86.52
2023-02-22T05:32:07.807Z,86.86
2023-02-22T05:34:34.897Z,86.47
2023-02-22T05:37:03.481Z,86.27
2023-02-22T05:39:32.009Z,86.66
2023-02-22T05:41:59.749Z,87.00
2023-02-22T05:44:28.033Z,86.54
2023-02-22T05:46:55.131Z,87.00
2023-02-22T05:49:22.232Z,87.14
2023-02-22T05:51:49.329Z,87.18
2023-02-22T05:54:16.722Z,87.06
2023-02-22T05:56:43.825Z,87.18
2023-02-22T05:59:10.871Z,87.47
2023-02-22T06:01:38.064Z,87.22
2023-02-22T06:04:05.253Z,87.83
2023-02-22T06:06:32.307Z,87.24
2023-02-22T06:08:59.392Z,87.66
2023-02-22T06:11:26.560Z,87.75
2023-02-22T06:13:54.424Z,86.89
2023-02-22T06:16:22.583Z,87.58
2023-02-22T06:18:50.520Z,86.76
2023-02-22T06:21:18.135Z,87.41
2023-02-22T06:23:45.561Z,87.10
2023-02-22T06:26:12.663Z,87.74
2023-02-22T06:28:39.706Z,87.08
2023-02-22T06:31:06.937Z,87.30
2023-02-22T06:33:34.022Z,87.22
2023-02-22T06:36:01.292Z,87.41
2023-02-22T06:38:28.867Z,87.45
2023-02-22T06:40:56.396Z,87.27
2023-02-22T06:43:27.664Z,86.97
2023-02-22T06:45:54.799Z,87.54
2023-02-22T06:48:22.094Z,87.10
2023-02-22T06:50:49.262Z,86.89
2023-02-22T06:53:16.403Z,87.52
2023-02-22T06:55:43.796Z,87.48
2023-02-22T06:58:11.399Z,87.30
2023-02-22T07:00:42.377Z,87.17
2023-02-22T07:03:12.522Z,88.01
2023-02-22T07:05:40.486Z,88.31
2023-02-22T07:08:08.068Z,88.75
2023-02-22T07:10:37.561Z,88.98
2023-02-22T07:13:06.630Z,88.47
2023-02-22T07:15:35.650Z,88.57
2023-02-22T07:18:03.029Z,89.27
2023-02-22T07:20:32.296Z,89.07
2023-02-22T07:23:00.298Z,88.09
2023-02-22T07:25:27.727Z,88.02
2023-02-22T07:27:54.780Z,88.94
2023-02-22T07:30:31.319Z,88.41
2023-02-22T07:33:02.206Z,88.86
2023-02-22T07:35:32.505Z,89.00
2023-02-22T07:38:00.213Z,89.02
2023-02-22T07:40:28.761Z,88.84
2023-02-22T07:43:27.767Z,88.75
2023-02-22T07:46:02.833Z,89.56
2023-02-22T07:48:32.282Z,89.18
2023-02-22T07:50:59.875Z,88.97
2023-02-22T07:53:33.533Z,88.88
2023-02-22T07:56:05.214Z,88.40
2023-02-22T07:58:32.886Z,89.05
2023-02-22T08:01:02.327Z,89.06
2023-02-22T08:03:38.221Z,88.54
2023-02-22T08:06:07.529Z,87.71
2023-02-22T08:08:34.691Z,88.50
2023-02-22T08:11:02.443Z,88.22
2023-02-22T08:13:30.013Z,89.54
2023-02-22T08:15:57.321Z,89.08
2023-02-22T08:18:25.617Z,88.98
2023-02-22T08:20:54.071Z,89.64
2023-02-22T08:23:25.323Z,89.44
2023-02-22T08:25:53.168Z,89.04
2023-02-22T08:28:23.787Z,89.25
2023-02-22T08:30:51.874Z,89.30
2023-02-22T08:33:19.936Z,89.02
2023-02-22T08:35:49.794Z,89.42
2023-02-22T08:38:27.891Z,89.39
2023-02-22T08:40:55.362Z,89.08
2023-02-22T08:43:23.635Z,89.09
2023-02-22T08:45:52.138Z,89.86
2023-02-22T08:48:20.289Z,89.07
2023-02-22T08:50:47.379Z,89.60
2023-02-22T08:53:16.484Z,88.58
2023-02-22T08:55:45.094Z,88.43
2023-02-22T08:58:13.283Z,88.25
2023-02-22T09:00:43.466Z,89.36
2023-02-22T09:03:14.076Z,89.39
2023-02-22T09:05:43.834Z,88.88
2023-02-22T09:08:11.153Z,89.22
2023-02-22T09:10:38.418Z,89.89
2023-02-22T09:13:05.857Z,89.91
2023-02-22T09:15:37.833Z,88.97
2023-02-22T09:18:08.542Z,89.42
2023-02-22T09:20:36.676Z,89.00
2023-02-22T09:23:06.344Z,89.92
2023-02-22T09:25:36.309Z,89.08
2023-02-22T09:28:03.479Z,89.50
2023-02-22T09:30:35.986Z,89.02
2023-02-22T09:33:16.306Z,89.13
2023-02-22T09:35:46.691Z,89.39
2023-02-22T09:38:23.157Z,88.71
2023-02-22T09:41:14.427Z,88.40
2023-02-22T09:44:07.123Z,88.22
2023-02-22T09:46:42.103Z,89.20
2023-02-22T09:49:47.474Z,88.31
2023-02-22T09:52:23.834Z,89.09
2023-02-22T09:55:05.559Z,88.03
2023-02-22T09:57:43.593Z,88.44
2023-02-22T10:00:22.849Z,88.71
2023-02-22T10:03:17.724Z,88.93
2023-02-22T10:05:57.049Z,87.88
2023-02-22T10:08:31.483Z,87.40
2023-02-22T10:11:30.821Z,87.75
2023-02-22T10:14:31.052Z,88.99
2023-02-22T10:17:06.267Z,87.14
2023-02-22T10:19:57.715Z,87.51
2023-02-22T10:22:56.971Z,88.08
2023-02-22T10:25:28.108Z,88.55
2023-02-22T10:27:59.547Z,88.64
2023-02-22T10:30:26.541Z,87.96
2023-02-22T10:33:41.606Z,89.12
2023-02-22T10:36:23.031Z,88.39
2023-02-22T10:39:07.976Z,87.82
2023-02-22T10:41:42.965Z,88.25
2023-02-22T10:44:10.516Z,88.67
2023-02-22T10:46:40.352Z,87.93
2023-02-22T10:49:08.059Z,88.15
2023-02-22T10:51:35.717Z,88.86
2023-02-22T10:54:15.525Z,89.34
2023-02-22T10:56:52.349Z,88.98
2023-02-22T10:59:36.468Z,88.71
2023-02-22T11:02:15.876Z,88.95
2023-02-22T11:04:54.926Z,88.85
2023-02-22T11:07:31.041Z,88.56
2023-02-22T11:10:11.104Z,88.93
2023-02-22T11:12:43.771Z,88.73
2023-02-22T11:15:16.970Z,88.06
2023-02-22T11:17:47.233Z,88.26
2023-02-22T11:20:35.902Z,88.50
2023-02-22T11:23:05.135Z,88.17
2023-02-22T11:25:36.726Z,88.21
2023-02-22T11:28:08.282Z,87.29
2023-02-22T11:30:36.244Z,87.38
2023-02-22T11:33:16.950Z,87.78
2023-02-22T11:35:55.412Z,87.80
2023-02-22T11:38:30.877Z,88.47
2023-02-22T11:41:06.134Z,87.83
2023-02-22T11:43:33.657Z,88.05
2023-02-22T11:46:12.718Z,87.40
2023-02-22T11:48:54.572Z,87.37
2023-02-22T11:52:03.363Z,87.29
2023-02-22T11:54:53.181Z,87.87
2023-02-22T11:58:08.607Z,87.04
2023-02-22T12:01:07.401Z,87.14
2023-02-22T12:04:26.038Z,86.88
2023-02-22T12:07:23.954Z,87.88
2023-02-22T12:10:21.465Z,87.83
2023-02-22T12:13:23.562Z,87.86
2023-02-22T12:16:40.418Z,87.74
2023-02-22T12:19:40.337Z,87.68
2023-02-22T12:22:23.017Z,87.17
2023-02-22T12:25:09.688Z,87.37
2023-02-22T12:27:53.090Z,86.27
2023-02-22T12:30:35.573Z,87.09
2023-02-22T12:33:15.842Z,86.83
2023-02-22T12:35:51.571Z,86.38
2023-02-22T12:38:44.927Z,87.46
2023-02-22T12:41:38.473Z,86.39
2023-02-22T12:44:39.596Z,86.74
2023-02-22T12:47:14.832Z,86.21
2023-02-22T12:49:59.429Z,86.70
2023-02-22T12:52:57.809Z,86.43
2023-02-22T12:55:31.711Z,86.43
2023-02-22T12:58:30.467Z,87.56
2023-02-22T13:01:22.321Z,86.72
2023-02-22T13:03:49.468Z,87.51
2023-02-22T13:06:27.905Z,87.02
2023-02-22T13:09:24.541Z,86.90
2023-02-22T13:12:09.716Z,87.34
2023-02-22T13:15:02.252Z,86.86
2023-02-22T13:18:01.491Z,87.46
2023-02-22T13:20:33.255Z,86.63
2023-02-22T13:23:29.803Z,87.35
2023-02-22T13:26:41.208Z,87.52
2023-02-22T13:29:19.753Z,87.17
2023-02-22T13:32:03.453Z,87.11
2023-02-22T13:34:48.547Z,87.43
2023-02-22T13:37:41.589Z,86.70
2023-02-22T13:40:36.627Z,86.93
2023-02-22T13:43:34.633Z,86.53
2023-02-22T13:46:20.258Z,86.84
2023-02-22T13:49:25.769Z,87.04
2023-02-22T13:51:59.117Z,86.32
2023-02-22T13:54:42.686Z,86.63
2023-02-22T13:57:34.246Z,86.77
2023-02-22T14:00:17.792Z,86.53
2023-02-22T14:03:08.283Z,86.41
2023-02-22T14:05:41.792Z,86.66
2023-02-22T14:08:31.754Z,85.13
2023-02-22T14:11:00.976Z,85.68
2023-02-22T14:13:30.654Z,85.94
2023-02-22T14:16:00.753Z,85.94
2023-02-22T14:18:31.653Z,85.20
2023-02-22T14:21:10.190Z,85.36
2023-02-22T14:23:48.848Z,85.66
2023-02-22T14:26:34.970Z,85.85
2023-02-22T14:29:17.111Z,85.53
2023-02-22T14:31:44.229Z,85.90
2023-02-22T14:34:17.556Z,85.27
2023-02-22T14:36:51.129Z,85.21
2023-02-22T14:39:32.223Z,85.09
2023-02-22T14:42:07.045Z,85.18
2023-02-22T14:44:56.635Z,84.81
2023-02-22T14:47:50.540Z,85.12
2023-02-22T14:50:30.146Z,84.84
2023-02-22T14:53:07.072Z,84.29
2023-02-22T14:55:43.085Z,84.62
2023-02-22T14:58:20.827Z,84.47
2023-02-22T15:00:53.181Z,85.53
2023-02-22T15:03:37.392Z,84.29
2023-02-22T15:06:20.352Z,85.18
2023-02-22T15:09:07.646Z,84.77
2023-02-22T15:11:35.638Z,84.72
2023-02-22T15:14:25.619Z,84.82
2023-02-22T15:16:57.030Z,84.70
2023-02-22T15:19:29.111Z,84.55
2023-02-22T15:21:59.346Z,84.10
2023-02-22T15:24:37.502Z,84.62
2023-02-22T15:27:19.622Z,84.82
2023-02-22T15:29:46.761Z,84.93
2023-02-22T15:32:32.164Z,84.94
2023-02-22T15:35:14.228Z,84.54
2023-02-22T15:37:41.353Z,84.86
2023-02-22T15:40:14.940Z,84.39
2023-02-22T15:42:47.852Z,84.83
2023-02-22T15:45:25.611Z,84.16
2023-02-22T15:47:56.244Z,84.83
2023-02-22T15:50:34.831Z,84.76
2023-02-22T15:53:08.888Z,84.81
2023-02-22T15:55:40.654Z,84.58
2023-02-22T15:58:25.428Z,84.53
2023-02-22T16:01:19.962Z,84.83
2023-02-22T16:04:00.670Z,84.45
2023-02-22T16:06:35.381Z,84.70
2023-02-22T16:09:09.688Z,84.43
2023-02-22T16:11:44.282Z,84.51
2023-02-22T16:14:42.896Z,84.44
2023-02-22T16:17:31.110Z,85.04
2023-02-22T16:20:02.182Z,85.43
2023-02-22T16:22:36.078Z,84.41
2023-02-22T16:25:24.962Z,84.52
2023-02-22T16:27:55.824Z,84.40
2023-02-22T16:30:36.139Z,84.74
2023-02-22T16:33:16.587Z,84.41
2023-02-22T16:35:52.169Z,84.73
2023-02-22T16:38:21.230Z,84.39
2023-02-22T16:40:55.283Z,85.07
2023-02-22T16:43:29.806Z,84.39
2023-02-22T16:45:57.342Z,84.56
2023-02-22T16:48:33.113Z,84.88
2023-02-22T16:51:07.765Z,84.19
2023-02-22T16:53:35.145Z,84.55
2023-02-22T16:56:09.237Z,84.97
2023-02-22T16:58:40.235Z,85.13
2023-02-22T17:01:07.854Z,84.64
2023-02-22T17:03:35.886Z,84.37
2023-02-22T17:06:03.157Z,85.23
2023-02-22T17:08:30.803Z,85.57
2023-02-22T17:11:00.788Z,84.55
2023-02-22T17:13:29.467Z,85.62
2023-02-22T17:15:57.599Z,84.30
2023-02-22T17:18:28.951Z,85.02
2023-02-22T17:20:56.960Z,85.52
2023-02-22T17:23:24.360Z,85.24
2023-02-22T17:25:59.257Z,85.50
2023-02-22T17:28:26.830Z,85.02
2023-02-22T17:30:59.112Z,85.36
2023-02-22T17:33:27.866Z,85.62
2023-02-22T17:35:58.003Z,84.66
2023-02-22T17:38:29.073Z,84.70
2023-02-22T17:41:01.410Z,84.90
2023-02-22T17:43:29.380Z,84.84
2023-02-22T17:45:57.223Z,85.42
2023-02-22T17:48:25.033Z,85.35
2023-02-22T17:50:53.060Z,84.66
2023-02-22T17:53:25.022Z,85.15
2023-02-22T17:55:52.635Z,85.86
2023-02-22T17:58:22.431Z,84.60
2023-02-22T18:00:51.505Z,85.30
2023-02-22T18:03:25.934Z,85.01
2023-02-22T18:05:59.786Z,85.19
2023-02-22T18:08:29.951Z,85.48
2023-02-22T18:10:57.173Z,85.07
2023-02-22T18:13:27.218Z,84.85
2023-02-22T18:16:00.157Z,85.26
2023-02-22T18:18:28.074Z,85.13
2023-02-22T18:20:59.951Z,84.76
2023-02-22T18:23:30.584Z,85.59
2023-02-22T18:26:23.023Z,84.87
2023-02-22T18:28:50.368Z,85.68
2023-02-22T18:31:20.345Z,85.01
2023-02-22T18:33:50.922Z,85.19
2023-02-22T18:36:25.410Z,85.71
2023-02-22T18:38:55.221Z,85.46
2023-02-22T18:41:27.004Z,85.48
2023-02-22T18:43:55.721Z,85.21
2023-02-22T18:46:24.731Z,85.96
2023-02-22T18:48:55.247Z,85.30
2023-02-22T18:51:23.805Z,85.86
2023-02-22T18:53:54.959Z,85.56
2023-02-22T18:56:22.463Z,85.83
2023-02-22T18:59:02.451Z,85.48
2023-02-22T19:01:31.445Z,84.94
2023-02-22T19:04:00.181Z,85.17
2023-02-22T19:06:27.415Z,86.35
2023-02-22T19:08:54.589Z,85.52
2023-02-22T19:11:24.245Z,86.06
2023-02-22T19:13:56.045Z,86.24
2023-02-22T19:16:25.661Z,86.21
2023-02-22T19:18:57.557Z,85.26
2023-02-22T19:21:27.651Z,85.70
2023-02-22T19:24:01.357Z,86.23
2023-02-22T19:26:29.548Z,85.27
2023-02-22T19:28:59.606Z,86.46
2023-02-22T19:31:31.546Z,86.14
2023-02-22T19:34:05.166Z,85.90
2023-02-22T19:36:32.724Z,85.34
2023-02-22T19:39:03.023Z,86.05
2023-02-22T19:41:31.570Z,86.20
2023-02-22T19:43:59.313Z,86.23
2023-02-22T19:46:26.771Z,85.88
2023-02-22T19:48:57.520Z,85.71
2023-02-22T19:51:27.991Z,85.89
2023-02-22T19:54:02.624Z,86.11
2023-02-22T19:56:31.447Z,86.02
2023-02-22T19:59:09.505Z,85.45
2023-02-22T20:01:37.649Z,86.39
2023-02-22T20:04:17.826Z,85.49
2023-02-22T20:06:46.437Z,86.51
2023-02-22T20:09:23.803Z,86.18
2023-02-22T20:11:54.374Z,86.51
2023-02-22T20:14:25.326Z,87.02
2023-02-22T20:16:55.883Z,86.29
2023-02-22T20:19:24.405Z,86.33
2023-02-22T20:21:55.851Z,86.24
2023-02-22T20:24:25.212Z,86.99
2023-02-22T20:26:55.870Z,86.22
2023-02-22T20:29:29.629Z,87.00
2023-02-22T20:31:59.631Z,86.47
2023-02-22T20:34:30.501Z,87.13
2023-02-22T20:36:57.650Z,86.54
2023-02-22T20:39:24.797Z,86.76
2023-02-22T20:41:52.708Z,86.99
2023-02-22T20:44:19.978Z,87.11
2023-02-22T20:46:48.176Z,87.54
2023-02-22T20:49:19.062Z,86.70
2023-02-22T20:51:48.180Z,86.80
2023-02-22T20:54:16.639Z,87.00
2023-02-22T20:56:45.769Z,86.55
2023-02-22T20:59:16.257Z,87.39
2023-02-22T21:01:43.940Z,86.93
2023-02-22T21:04:12.089Z,86.80
2023-02-22T21:06:41.293Z,87.42
2023-02-22T21:09:15.141Z,86.46
2023-02-22T21:11:42.932Z,87.36
2023-02-22T21:14:18.632Z,87.18
2023-02-22T21:16:49.116Z,88.04
2023-02-22T21:19:26.590Z,87.78
2023-02-22T21:21:56.255Z,87.39
2023-02-22T21:24:26.194Z,87.82
2023-02-22T21:26:53.833Z,87.32
2023-02-22T21:29:25.377Z,87.71
2023-02-22T21:31:56.594Z,87.08
2023-02-22T21:34:25.940Z,87.66
2023-02-22T21:36:53.376Z,87.23
2023-02-22T21:39:20.882Z,87.48
2023-02-22T21:41:51.438Z,87.24
2023-02-22T21:44:19.411Z,86.86
2023-02-22T21:46:49.680Z,87.19
2023-02-22T21:49:17.520Z,87.71
2023-02-22T21:51:45.003Z,87.45
2023-02-22T21:54:13.228Z,87.20
2023-02-22T21:56:43.283Z,88.21
2023-02-22T21:59:14.323Z,87.22
2023-02-22T22:01:56.098Z,87.07
2023-02-22T22:04:28.662Z,87.00
2023-02-22T22:07:01.418Z,87.02
2023-02-22T22:09:33.054Z,87.53
2023-02-22T22:12:05.611Z,87.16
2023-02-22T22:14:35.133Z,87.64
2023-02-22T22:17:05.721Z,87.88
2023-02-22T22:19:40.607Z,87.50
2023-02-22T22:22:08.032Z,88.29
2023-02-22T22:24:35.278Z,87.95
2023-02-22T22:27:06.193Z,87.80
2023-02-22T22:29:34.892Z,87.15
2023-02-22T22:32:03.347Z,87.67
2023-02-22T22:34:34.540Z,88.31
2023-02-22T22:37:01.714Z,87.62
2023-02-22T22:39:30.123Z,87.57
2023-02-22T22:41:57.103Z,87.57
2023-02-22T22:44:24.238Z,88.37
2023-02-22T22:46:54.786Z,88.08
2023-02-22T22:49:23.718Z,87.80
2023-02-22T22:51:51.307Z,88.42
2023-02-22T22:54:18.496Z,87.89
2023-02-22T22:56:46.534Z,88.07
2023-02-22T22:59:14.016Z,87.87
2023-02-22T23:01:44.718Z,88.38
2023-02-22T23:04:18.675Z,88.02
2023-02-22T23:06:52.089Z,87.87
2023-02-22T23:09:35.048Z,87.99
2023-02-22T23:12:09.331Z,87.53
2023-02-22T23:14:39.349Z,88.43
2023-02-22T23:17:16.043Z,88.75
2023-02-22T23:19:45.019Z,87.84
2023-02-22T23:22:15.486Z,88.53
2023-02-22T23:24:44.598Z,87.65
2023-02-22T23:27:12.347Z,88.23
2023-02-22T23:29:41.800Z,87.79
2023-02-22T23:32:10.242Z,87.62
2023-02-22T23:34:41.146Z,87.83
2023-02-22T23:37:10.758Z,87.38
2023-02-22T23:39:38.724Z,87.83
2023-02-22T23:42:08.822Z,88.01
2023-02-22T23:44:36.111Z,88.02
2023-02-22T23:47:03.908Z,88.04
2023-02-22T23:49:35.944Z,87.81
2023-02-22T23:52:08.138Z,87.42
2023-02-22T23:54:44.042Z,88.07
2023-02-22T23:57:11.788Z,88.69
2023-02-22T23:59:40.538Z,89.29
